createdAt,value
2019-04-06T00:04:07.562Z,63.92
2019-04-06T00:09:14.166Z,67.57
2019-04-06T00:14:20.661Z,66.77
2019-04-06T00:19:28.914Z,65.97
2019-04-06T00:24:35.534Z,70.90
2019-04-06T00:29:42.114Z,66.97
2019-04-06T00:34:48.606Z,69.07
2019-04-06T00:39:55.241Z,65.17
2019-04-06T00:45:02.768Z,68.23
2019-04-06T00:50:10.930Z,64.17
2019-04-06T00:55:17.315Z,66.28
2019-04-06T01:00:23.700Z,66.40
2019-04-06T01:05:30.599Z,62.13
2019-04-06T01:10:37.054Z,64.13
2019-04-06T01:15:43.375Z,67.23
2019-04-06T01:20:49.724Z,64.77
2019-04-06T01:26:06.699Z,65.93
2019-04-06T01:31:07.075Z,64.60
2019-04-06T01:36:13.799Z,62.35
2019-04-06T01:41:20.139Z,62.73
2019-04-06T01:46:28.470Z,65.53
2019-04-06T01:51:35.237Z,62.40
2019-04-06T01:56:43.552Z,65.75
2019-04-06T02:01:57.151Z,66.27
2019-04-06T02:07:03.680Z,70.70
2019-04-06T02:12:10.190Z,71.22
2019-04-06T02:17:16.616Z,69.90
2019-04-06T02:22:22.932Z,71.62
2019-04-06T02:27:29.568Z,71.70
2019-04-06T02:32:43.632Z,68.50
2019-04-06T02:37:55.609Z,70.40
2019-04-06T02:43:09.950Z,70.07
2019-04-06T02:48:16.345Z,74.30
2019-04-06T02:53:22.812Z,72.22
2019-04-06T02:58:29.187Z,76.20
2019-04-06T03:03:36.155Z,73.63
2019-04-06T03:08:44.286Z,75.30
2019-04-06T03:13:51.745Z,75.63
2019-04-06T03:18:58.049Z,75.47
2019-04-06T03:24:05.330Z,77.77
2019-04-06T03:29:12.332Z,73.73
2019-04-06T03:34:21.570Z,71.50
2019-04-06T03:39:26.829Z,75.05
2019-04-06T03:44:33.700Z,78.27
2019-04-06T03:49:40.120Z,75.47
2019-04-06T03:54:47.663Z,73.40
2019-04-06T03:59:54.043Z,76.33
2019-04-06T04:05:00.436Z,81.15
2019-04-06T04:10:08.367Z,81.40
2019-04-06T04:15:14.971Z,82.65
2019-04-06T04:20:21.316Z,79.13
2019-04-06T04:25:27.817Z,87.50
2019-04-06T04:30:34.968Z,80.47
2019-04-06T04:35:41.603Z,87.57
2019-04-06T04:40:47.974Z,83.10
2019-04-06T04:45:54.643Z,87.53
2019-04-06T04:51:02.811Z,77.82
2019-04-06T04:56:09.303Z,83.57
2019-04-06T05:01:15.573Z,79.75
2019-04-06T05:06:22.045Z,78.40
2019-04-06T05:11:28.704Z,88.67
2019-04-06T05:16:35.007Z,85.53
2019-04-06T05:21:41.237Z,80.33
2019-04-06T05:26:47.469Z,77.70
2019-04-06T05:31:53.876Z,80.93
2019-04-06T05:37:00.258Z,78.02
2019-04-06T05:42:07.009Z,81.07
2019-04-06T05:47:13.483Z,82.78
2019-04-06T05:52:20.852Z,80.62
2019-04-06T05:57:27.384Z,74.37
2019-04-06T06:02:33.715Z,78.92
2019-04-06T06:07:40.038Z,76.40
2019-04-06T06:12:46.628Z,75.13
2019-04-06T06:17:56.809Z,72.17
2019-04-06T06:23:03.164Z,69.73
2019-04-06T06:28:15.249Z,68.62
2019-04-06T06:33:18.013Z,64.67
2019-04-06T06:38:24.772Z,65.43
2019-04-06T06:43:32.120Z,63.67
2019-04-06T06:48:38.719Z,63.37
2019-04-06T06:53:45.886Z,60.97
2019-04-06T06:58:52.214Z,55.70
2019-04-06T07:03:58.977Z,49.15
2019-04-06T07:09:07.219Z,51.63
2019-04-06T07:14:15.178Z,42.50
2019-04-06T07:19:21.883Z,42.43
2019-04-06T07:24:28.194Z,36.50
2019-04-06T07:29:34.584Z,37.30
2019-04-06T07:34:41.123Z,39.33
2019-04-06T07:39:47.520Z,34.13
2019-04-06T07:44:55.078Z,31.63
2019-04-06T07:50:01.539Z,36.23
2019-04-06T07:55:08.531Z,32.43
2019-04-06T08:00:15.122Z,32.95
2019-04-06T08:05:21.638Z,31.50
2019-04-06T08:10:28.211Z,30.73
2019-04-06T08:15:35.253Z,28.30
2019-04-06T08:20:42.827Z,30.45
2019-04-06T08:25:49.335Z,30.13
2019-04-06T08:38:48.024Z,27.80
2019-04-06T08:43:54.259Z,30.83
2019-04-06T08:49:00.543Z,28.87
2019-04-06T08:54:07.491Z,26.13
2019-04-06T08:59:15.127Z,28.77
2019-04-06T09:04:22.307Z,27.62
2019-04-06T09:09:31.221Z,24.53
2019-04-06T09:14:38.477Z,18.87
2019-04-06T09:19:46.663Z,19.73
2019-04-06T09:24:53.123Z,19.83
2019-04-06T09:29:59.456Z,19.30
2019-04-06T09:35:07.078Z,16.03
2019-04-06T09:40:15.724Z,19.35
2019-04-06T09:45:56.283Z,19.93
2019-04-06T09:51:22.229Z,18.73
2019-04-06T09:56:40.148Z,20.92
2019-04-06T10:02:05.538Z,21.73
2019-04-06T10:07:37.204Z,22.10
2019-04-06T10:13:09.947Z,21.00
2019-04-06T10:18:26.255Z,24.00
2019-04-06T10:23:54.974Z,23.53
2019-04-06T10:29:47.980Z,23.43
2019-04-06T10:35:24.904Z,25.60
2019-04-06T10:40:46.379Z,25.07
2019-04-06T10:46:14.259Z,24.67
2019-04-06T10:51:58.072Z,25.97
2019-04-06T10:57:26.520Z,27.27
2019-04-06T11:02:56.195Z,27.57
2019-04-06T11:08:30.467Z,27.87
2019-04-06T11:13:54.955Z,26.77
2019-04-06T11:19:26.757Z,31.30
2019-04-06T11:24:58.618Z,30.30
2019-04-06T11:30:38.766Z,30.13
2019-04-06T11:36:17.601Z,29.63
2019-04-06T11:41:55.472Z,27.90
2019-04-06T11:47:19.629Z,28.13
2019-04-06T11:52:49.753Z,30.73
2019-04-06T11:58:18.203Z,33.80
2019-04-06T12:03:30.716Z,30.23
2019-04-06T12:08:58.990Z,30.83
2019-04-06T12:14:17.047Z,32.07
2019-04-06T12:19:45.575Z,33.23
2019-04-06T12:25:15.129Z,30.17
2019-04-06T12:30:43.679Z,31.73
2019-04-06T12:36:09.296Z,32.23
2019-04-06T12:41:29.189Z,40.93
2019-04-06T12:46:47.449Z,35.00
2019-04-06T12:52:26.028Z,33.93
2019-04-06T12:58:00.871Z,33.78
2019-04-06T13:03:25.166Z,31.80
2019-04-06T13:08:39.521Z,32.00
2019-04-06T13:14:15.095Z,31.40
2019-04-06T13:19:52.139Z,32.57
2019-04-06T13:25:26.361Z,34.57
2019-04-06T13:30:46.412Z,32.28
2019-04-06T13:36:14.796Z,32.60
2019-04-06T13:41:42.746Z,32.33
2019-04-06T13:47:11.190Z,31.50
2019-04-06T13:52:28.859Z,32.10
2019-04-06T13:57:52.846Z,30.77
2019-04-06T14:03:27.290Z,27.97
2019-04-06T14:09:01.989Z,29.03
2019-04-06T14:14:29.559Z,28.63
2019-04-06T14:19:48.663Z,29.23
2019-04-06T14:25:10.738Z,28.37
2019-04-06T14:30:39.068Z,31.50
2019-04-06T14:36:03.159Z,29.10
2019-04-06T14:41:28.684Z,29.63
2019-04-06T14:46:54.368Z,34.17
2019-04-06T14:52:16.568Z,35.83
2019-04-06T14:57:41.961Z,34.78
2019-04-06T15:02:59.192Z,33.50
2019-04-06T15:08:23.356Z,32.97
2019-04-06T15:13:55.882Z,34.03
2019-04-06T15:19:27.000Z,34.33
2019-04-06T15:24:42.922Z,35.37
2019-04-06T15:30:07.480Z,33.67
2019-04-06T15:35:34.407Z,33.10
2019-04-06T15:40:59.005Z,36.47
2019-04-06T15:46:31.028Z,33.33
2019-04-06T15:51:54.606Z,31.90
2019-04-06T15:57:22.412Z,35.77
2019-04-06T16:02:46.665Z,34.80
2019-04-06T16:08:15.306Z,32.33
2019-04-06T16:13:33.532Z,34.92
2019-04-06T16:19:05.229Z,37.40
2019-04-06T16:24:48.912Z,43.23
2019-04-06T16:30:06.176Z,44.07
2019-04-06T16:35:25.747Z,42.60
2019-04-06T16:40:57.036Z,46.90
2019-04-06T16:46:20.322Z,45.35
2019-04-06T16:51:44.233Z,45.47
2019-04-06T16:57:16.048Z,44.87
2019-04-06T17:02:44.370Z,48.77
2019-04-06T17:08:10.209Z,60.23
2019-04-06T17:13:27.281Z,49.37
2019-04-06T17:18:52.506Z,50.15
2019-04-06T17:24:16.752Z,54.97
2019-04-06T17:29:30.128Z,51.63
2019-04-06T17:34:56.686Z,56.87
2019-04-06T17:40:17.851Z,55.60
2019-04-06T17:45:41.405Z,52.63
2019-04-06T17:51:16.601Z,53.63
2019-04-06T17:56:54.711Z,57.00
2019-04-06T18:02:11.645Z,55.20
2019-04-06T18:07:35.875Z,59.33
2019-04-06T18:12:48.581Z,61.40
2019-04-06T18:17:55.240Z,57.43
2019-04-06T18:23:01.693Z,55.63
2019-04-06T18:28:09.657Z,59.83
2019-04-06T18:33:19.975Z,66.05
2019-04-06T18:38:38.668Z,60.63
2019-04-06T18:43:45.465Z,62.47
2019-04-06T18:48:52.004Z,60.70
2019-04-06T18:53:58.637Z,65.30
2019-04-06T18:59:06.603Z,64.80
2019-04-06T19:04:14.158Z,59.93
2019-04-06T19:09:24.076Z,59.88
2019-04-06T19:14:29.629Z,65.20
2019-04-06T19:19:36.375Z,60.73
2019-04-06T19:24:43.182Z,59.57
2019-04-06T19:29:49.564Z,66.70
2019-04-06T19:34:56.194Z,65.60
2019-04-06T19:40:02.506Z,58.33
2019-04-06T19:45:09.340Z,59.90
2019-04-06T19:50:16.397Z,65.47
2019-04-06T19:55:22.995Z,63.03
2019-04-06T20:00:30.963Z,61.53
2019-04-06T20:05:37.287Z,63.80
2019-04-06T20:10:44.139Z,66.95
2019-04-06T20:15:50.875Z,64.47
2019-04-06T20:20:57.237Z,66.27
2019-04-06T20:26:04.695Z,71.47
2019-04-06T20:31:11.557Z,63.80
2019-04-06T20:36:18.247Z,70.43
2019-04-06T20:41:24.884Z,68.47
2019-04-06T20:46:31.251Z,67.43
2019-04-06T20:51:37.971Z,68.72
2019-04-06T20:56:53.837Z,67.23
2019-04-06T21:01:53.171Z,69.90
2019-04-06T21:06:59.944Z,68.43
2019-04-06T21:12:06.821Z,68.53
2019-04-06T21:17:13.252Z,68.07
2019-04-06T21:22:20.185Z,70.50
2019-04-06T21:27:27.106Z,70.40
2019-04-06T21:32:33.629Z,72.17
2019-04-06T21:37:40.027Z,73.13
2019-04-06T21:42:46.535Z,79.10
2019-04-06T21:47:53.067Z,81.90
2019-04-06T21:52:59.463Z,79.90
2019-04-06T21:58:05.805Z,85.00
2019-04-06T22:03:12.211Z,77.80
2019-04-06T22:08:18.807Z,73.05
2019-04-06T22:13:26.243Z,75.57
2019-04-06T22:18:34.391Z,72.82
2019-04-06T22:23:44.956Z,75.23
2019-04-06T22:28:50.840Z,74.37
2019-04-06T22:33:57.212Z,76.50
2019-04-06T22:39:06.173Z,73.40
2019-04-06T22:44:13.127Z,73.07
2019-04-06T22:49:22.757Z,76.23
2019-04-06T22:54:29.122Z,71.97
2019-04-06T22:59:35.658Z,80.10
2019-04-06T23:04:51.257Z,76.57
2019-04-06T23:09:57.694Z,80.50
2019-04-06T23:15:06.056Z,78.33
2019-04-06T23:20:12.960Z,80.67
2019-04-06T23:25:19.821Z,78.73
2019-04-06T23:30:26.528Z,78.93
2019-04-06T23:35:33.016Z,78.83
2019-04-06T23:40:39.525Z,76.97
2019-04-06T23:45:46.049Z,77.83
2019-04-06T23:50:52.408Z,80.05
2019-04-06T23:56:00.910Z,78.10
